createdAt,value
2018-05-14T00:02:03.287Z,6.87
2018-05-14T00:04:30.846Z,6.83
2018-05-14T00:06:58.348Z,7.20
2018-05-14T00:09:25.960Z,7.03
2018-05-14T00:11:53.523Z,7.73
2018-05-14T00:14:21.054Z,7.00
2018-05-14T00:16:48.660Z,7.77
2018-05-14T00:19:16.269Z,6.60
2018-05-14T00:21:43.887Z,7.03
2018-05-14T00:24:11.392Z,6.60
2018-05-14T00:26:38.893Z,6.23
2018-05-14T00:29:06.401Z,7.07
2018-05-14T00:31:33.920Z,6.70
2018-05-14T00:34:01.448Z,7.60
2018-05-14T00:36:28.970Z,7.27
2018-05-14T00:38:56.469Z,7.40
2018-05-14T00:41:24.057Z,7.73
2018-05-14T00:43:51.671Z,6.73
2018-05-14T00:49:10.191Z,6.70
2018-05-14T00:51:37.804Z,8.00
2018-05-14T00:54:05.310Z,7.67
2018-05-14T00:56:32.859Z,8.07
2018-05-14T00:59:00.360Z,7.00
2018-05-14T01:01:27.881Z,6.97
2018-05-14T01:06:29.197Z,6.77
2018-05-14T01:08:56.717Z,7.30
2018-05-14T01:11:24.292Z,7.20
2018-05-14T01:16:25.532Z,7.17
2018-05-14T01:18:53.053Z,6.37
2018-05-14T01:21:20.738Z,6.90
2018-05-14T01:23:48.307Z,6.70
2018-05-14T01:26:15.825Z,6.83
2018-05-14T01:28:43.434Z,7.80
2018-05-14T01:31:11.027Z,8.60
2018-05-14T01:33:38.615Z,8.13
2018-05-14T01:36:06.209Z,8.00
2018-05-14T01:38:33.815Z,9.00
2018-05-14T01:43:51.560Z,6.97
2018-05-14T01:46:19.220Z,6.27
2018-05-14T01:48:46.721Z,6.20
2018-05-14T01:51:14.232Z,7.03
2018-05-14T01:53:41.732Z,6.60
2018-05-14T01:56:09.258Z,7.10
2018-05-14T01:58:36.814Z,7.07
2018-05-14T02:01:04.412Z,7.10
2018-05-14T02:03:32.095Z,6.97
2018-05-14T02:05:59.688Z,5.97
2018-05-14T02:08:27.274Z,6.93
2018-05-14T02:10:54.877Z,6.90
2018-05-14T02:13:22.442Z,6.90
2018-05-14T02:15:50.055Z,5.90
2018-05-14T02:18:17.824Z,6.10
2018-05-14T02:20:45.427Z,6.63
2018-05-14T02:23:13.039Z,6.80
2018-05-14T02:25:40.617Z,6.10
2018-05-14T02:28:08.277Z,7.37
2018-05-14T02:30:35.828Z,6.93
2018-05-14T02:33:03.444Z,7.80
2018-05-14T02:35:31.053Z,7.00
2018-05-14T02:37:58.622Z,6.73
2018-05-14T02:40:26.177Z,6.00
2018-05-14T02:42:53.703Z,5.40
2018-05-14T02:45:21.648Z,7.23
2018-05-14T02:47:49.641Z,6.10
2018-05-14T02:50:17.663Z,6.83
2018-05-14T02:52:45.250Z,6.87
2018-05-14T02:55:12.982Z,6.73
2018-05-14T02:57:40.591Z,7.20
2018-05-14T03:00:08.119Z,6.50
2018-05-14T03:02:35.693Z,6.60
2018-05-14T03:05:03.248Z,5.87
2018-05-14T03:07:31.336Z,6.70
2018-05-14T03:09:58.920Z,6.33
2018-05-14T03:15:00.193Z,7.57
2018-05-14T03:17:27.740Z,7.17
2018-05-14T03:19:55.268Z,7.87
2018-05-14T03:22:22.790Z,10.23
2018-05-14T03:24:50.295Z,7.60
2018-05-14T03:27:17.834Z,8.30
2018-05-14T03:29:45.370Z,7.23
2018-05-14T03:32:12.937Z,7.20
2018-05-14T03:34:40.469Z,7.67
2018-05-14T03:37:08.088Z,7.20
2018-05-14T03:39:35.688Z,7.63
2018-05-14T03:42:03.264Z,7.70
2018-05-14T03:44:30.951Z,8.00
2018-05-14T03:46:58.532Z,10.07
2018-05-14T03:49:26.143Z,12.73
2018-05-14T03:51:53.745Z,16.60
2018-05-14T03:54:21.397Z,13.53
2018-05-14T03:56:49.017Z,13.93
2018-05-14T03:59:28.512Z,13.03
2018-05-14T04:05:08.921Z,10.33
2018-05-14T04:10:10.453Z,10.70
2018-05-14T04:12:38.018Z,10.83
2018-05-14T04:15:05.619Z,9.17
2018-05-14T04:17:33.269Z,8.70
2018-05-14T04:20:00.836Z,9.17
2018-05-14T04:22:28.486Z,8.67
2018-05-14T04:24:56.075Z,8.60
2018-05-14T04:27:23.664Z,7.80
2018-05-14T04:29:51.241Z,7.87
2018-05-14T04:32:18.860Z,8.73
2018-05-14T04:34:46.405Z,8.73
2018-05-14T04:37:13.979Z,8.70
2018-05-14T04:39:41.669Z,9.47
2018-05-14T04:42:09.220Z,8.40
2018-05-14T04:44:36.755Z,9.70
2018-05-14T04:47:04.459Z,8.50
2018-05-14T04:49:32.107Z,9.80
2018-05-14T04:51:59.716Z,9.13
2018-05-14T04:54:27.454Z,8.40
2018-05-14T04:56:55.028Z,6.97
2018-05-14T04:59:22.651Z,8.20
2018-05-14T05:01:50.337Z,7.53
2018-05-14T05:04:20.792Z,8.30
2018-05-14T05:06:48.393Z,7.00
2018-05-14T05:09:16.022Z,7.83
2018-05-14T05:11:43.690Z,6.50
2018-05-14T05:14:11.299Z,7.73
2018-05-14T05:16:38.942Z,6.43
2018-05-14T05:19:06.490Z,6.93
2018-05-14T05:21:34.027Z,7.47
2018-05-14T05:24:01.619Z,6.60
2018-05-14T05:26:29.134Z,7.23
2018-05-14T05:28:56.686Z,6.73
2018-05-14T05:31:24.320Z,7.30
2018-05-14T05:33:51.889Z,5.50
2018-05-14T05:36:19.409Z,6.53
2018-05-14T05:38:46.925Z,6.63
2018-05-14T05:41:14.502Z,6.80
2018-05-14T05:43:42.046Z,6.87
2018-05-14T05:46:09.614Z,5.93
2018-05-14T05:48:37.187Z,6.20
2018-05-14T05:51:04.699Z,6.03
2018-05-14T05:53:33.314Z,5.87
2018-05-14T05:56:00.845Z,6.80
2018-05-14T05:58:28.376Z,6.03
2018-05-14T06:00:56.071Z,5.87
2018-05-14T06:03:23.686Z,6.93
2018-05-14T06:05:51.245Z,6.37
2018-05-14T06:10:52.726Z,6.93
2018-05-14T06:13:20.241Z,7.10
2018-05-14T06:15:47.883Z,6.97
2018-05-14T06:18:15.451Z,6.93
2018-05-14T06:20:43.050Z,7.30
2018-05-14T06:23:10.778Z,6.83
2018-05-14T06:25:38.350Z,6.70
2018-05-14T06:28:05.864Z,7.00
2018-05-14T06:30:33.388Z,6.10
2018-05-14T06:35:34.621Z,7.27
2018-05-14T06:38:02.185Z,6.00
2018-05-14T06:40:29.778Z,6.80
2018-05-14T06:42:57.377Z,8.23
2018-05-14T06:45:24.972Z,7.30
2018-05-14T06:47:52.783Z,6.90
2018-05-14T06:50:20.383Z,5.93
2018-05-14T06:52:47.893Z,5.80
2018-05-14T06:55:15.519Z,7.27
2018-05-14T06:57:43.020Z,6.00
2018-05-14T07:00:10.621Z,7.27
2018-05-14T07:02:38.220Z,6.57
2018-05-14T07:05:05.801Z,5.50
2018-05-14T07:07:33.456Z,6.47
2018-05-14T07:10:01.071Z,7.67
2018-05-14T07:12:28.627Z,5.70
2018-05-14T07:14:56.248Z,6.20
2018-05-14T07:17:23.887Z,6.87
2018-05-14T07:19:51.449Z,6.17
2018-05-14T07:22:19.022Z,5.97
2018-05-14T07:24:46.636Z,6.37
2018-05-14T07:27:14.230Z,6.70
2018-05-14T07:29:43.368Z,5.50
2018-05-14T07:32:10.978Z,5.37
2018-05-14T07:34:38.503Z,7.10
2018-05-14T07:37:06.028Z,6.63
2018-05-14T07:39:33.547Z,5.93
2018-05-14T07:42:01.124Z,6.20
2018-05-14T07:44:28.709Z,7.00
2018-05-14T07:46:56.300Z,6.07
2018-05-14T07:49:23.869Z,6.00
2018-05-14T07:51:51.402Z,5.63
2018-05-14T07:54:18.999Z,6.40
2018-05-14T07:56:46.852Z,6.13
2018-05-14T07:59:14.466Z,6.30
2018-05-14T08:01:42.055Z,6.10
2018-05-14T08:04:09.639Z,6.27
2018-05-14T08:06:37.165Z,5.90
2018-05-14T08:09:04.705Z,6.27
2018-05-14T08:11:32.252Z,6.07
2018-05-14T08:13:59.759Z,5.87
2018-05-14T08:16:27.295Z,6.33
2018-05-14T08:18:54.893Z,6.23
2018-05-14T08:21:22.605Z,5.90
2018-05-14T08:23:50.474Z,6.50
2018-05-14T08:26:18.282Z,7.40
2018-05-14T08:28:45.971Z,6.77
2018-05-14T08:31:13.576Z,6.50
2018-05-14T08:33:41.302Z,7.03
2018-05-14T08:36:08.887Z,6.17
2018-05-14T08:38:36.543Z,6.03
2018-05-14T08:41:04.150Z,7.20
2018-05-14T08:43:31.755Z,6.10
2018-05-14T08:45:59.430Z,6.80
2018-05-14T08:48:27.039Z,6.13
2018-05-14T08:50:54.702Z,5.37
2018-05-14T08:53:22.411Z,5.73
2018-05-14T08:55:50.055Z,5.00
2018-05-14T08:58:18.146Z,6.53
2018-05-14T09:00:45.815Z,5.60
2018-05-14T09:03:13.306Z,5.80
2018-05-14T09:05:40.852Z,6.30
2018-05-14T09:08:08.426Z,5.53
2018-05-14T09:10:36.026Z,5.33
2018-05-14T09:13:03.661Z,5.57
2018-05-14T09:15:31.206Z,5.97
2018-05-14T09:17:58.795Z,5.33
2018-05-14T09:20:26.395Z,5.37
2018-05-14T09:22:54.066Z,5.87
2018-05-14T09:25:22.006Z,5.67
2018-05-14T09:27:50.463Z,5.50
2018-05-14T09:30:18.068Z,4.93
2018-05-14T09:32:46.581Z,4.40
2018-05-14T09:35:14.347Z,4.70
2018-05-14T09:37:42.036Z,5.50
2018-05-14T09:42:43.927Z,5.67
2018-05-14T09:45:11.721Z,5.43
2018-05-14T09:47:39.330Z,5.30
2018-05-14T09:50:07.034Z,5.00
2018-05-14T09:52:34.687Z,4.70
2018-05-14T09:55:02.315Z,4.53
2018-05-14T09:57:29.940Z,5.10
2018-05-14T09:59:57.583Z,5.80
2018-05-14T10:02:25.233Z,4.80
2018-05-14T10:04:52.952Z,5.53
2018-05-14T10:07:20.967Z,5.73
2018-05-14T10:09:50.739Z,5.90
2018-05-14T10:12:18.268Z,5.63
2018-05-14T10:14:45.838Z,5.37
2018-05-14T10:17:13.362Z,6.33
2018-05-14T10:19:41.152Z,5.80
2018-05-14T10:22:08.878Z,6.27
2018-05-14T10:24:36.482Z,9.33
2018-05-14T10:27:03.954Z,7.13
2018-05-14T10:29:31.491Z,6.57
2018-05-14T10:31:59.140Z,6.97
2018-05-14T10:34:26.637Z,6.33
2018-05-14T10:36:54.213Z,7.37
2018-05-14T10:39:21.839Z,7.07
2018-05-14T10:41:49.456Z,6.30
2018-05-14T10:44:17.067Z,6.57
2018-05-14T10:46:44.668Z,5.30
2018-05-14T10:49:12.526Z,6.13
2018-05-14T10:51:40.041Z,7.50
2018-05-14T10:54:07.582Z,6.90
2018-05-14T10:56:35.150Z,6.33
2018-05-14T10:59:02.828Z,7.03
2018-05-14T11:01:30.540Z,6.20
2018-05-14T11:03:58.647Z,7.03
2018-05-14T11:06:28.405Z,5.83
2018-05-14T11:08:55.975Z,5.63
2018-05-14T11:11:23.606Z,5.60
2018-05-14T11:13:51.248Z,5.10
2018-05-14T11:16:18.881Z,6.03
2018-05-14T11:18:46.484Z,5.70
2018-05-14T11:21:14.302Z,5.57
2018-05-14T11:23:42.070Z,6.10
2018-05-14T11:26:09.620Z,6.63
2018-05-14T11:28:37.248Z,6.20
2018-05-14T11:31:04.800Z,5.30
2018-05-14T11:33:32.705Z,5.43
2018-05-14T11:36:00.341Z,5.00
2018-05-14T11:38:27.984Z,5.00
2018-05-14T11:40:55.571Z,4.90
2018-05-14T11:43:23.180Z,4.10
2018-05-14T11:45:50.791Z,4.73
2018-05-14T11:48:18.405Z,6.30
2018-05-14T11:50:47.092Z,5.47
2018-05-14T11:53:14.828Z,4.87
2018-05-14T11:55:42.348Z,5.60
2018-05-14T11:58:09.872Z,4.67
2018-05-14T12:00:37.408Z,5.00
2018-05-14T12:03:05.063Z,4.20
2018-05-14T12:05:32.929Z,5.07
2018-05-14T12:08:00.427Z,5.03
2018-05-14T12:10:27.981Z,4.90
2018-05-14T12:12:55.498Z,3.90
2018-05-14T12:15:23.033Z,3.67
2018-05-14T12:17:50.585Z,3.60
2018-05-14T12:20:18.248Z,3.40
2018-05-14T12:22:45.767Z,3.60
2018-05-14T12:25:13.801Z,3.47
2018-05-14T12:27:41.515Z,3.43
2018-05-14T12:30:09.300Z,3.13
2018-05-14T12:32:36.863Z,3.33
2018-05-14T12:37:38.451Z,3.23
2018-05-14T12:40:06.195Z,3.07
2018-05-14T12:42:34.786Z,3.30
2018-05-14T12:45:03.576Z,3.27
2018-05-14T12:47:32.612Z,3.27
2018-05-14T12:50:01.178Z,3.20
2018-05-14T12:52:28.813Z,3.53
2018-05-14T12:54:56.623Z,2.70
2018-05-14T12:59:58.131Z,2.70
2018-05-14T13:02:25.659Z,3.30
2018-05-14T13:04:53.194Z,3.50
2018-05-14T13:07:20.746Z,3.23
2018-05-14T13:09:49.335Z,3.27
2018-05-14T13:12:16.932Z,3.63
2018-05-14T13:14:44.778Z,3.63
2018-05-14T13:17:14.095Z,4.10
2018-05-14T13:19:41.766Z,2.87
2018-05-14T13:22:09.852Z,3.37
2018-05-14T13:24:37.475Z,3.37
2018-05-14T13:27:11.020Z,3.17
2018-05-14T13:29:38.695Z,2.63
2018-05-14T13:32:06.398Z,2.93
2018-05-14T13:34:34.870Z,3.13
2018-05-14T13:37:02.537Z,2.60
2018-05-14T13:39:30.229Z,3.23
2018-05-14T13:41:58.518Z,3.23
2018-05-14T13:44:27.996Z,2.90
2018-05-14T13:46:56.350Z,2.90
2018-05-14T13:49:24.039Z,2.73
2018-05-14T13:51:51.708Z,3.03
2018-05-14T13:54:19.373Z,3.30
2018-05-14T13:56:46.960Z,3.57
2018-05-14T13:59:14.468Z,3.97
2018-05-14T14:01:42.001Z,2.80
2018-05-14T14:04:11.786Z,3.43
2018-05-14T14:06:43.548Z,3.70
2018-05-14T14:09:15.336Z,3.53
2018-05-14T14:11:43.070Z,3.10
2018-05-14T14:14:11.777Z,3.63
2018-05-14T14:16:39.305Z,3.63
2018-05-14T14:19:07.660Z,3.37
2018-05-14T14:21:35.266Z,3.00
2018-05-14T14:24:03.130Z,3.30
2018-05-14T14:26:30.469Z,3.03
2018-05-14T14:28:58.030Z,3.70
2018-05-14T14:31:26.052Z,3.00
2018-05-14T14:33:54.179Z,3.50
2018-05-14T14:36:22.049Z,2.90
2018-05-14T14:38:49.641Z,3.40
2018-05-14T14:41:17.172Z,2.90
2018-05-14T14:43:45.832Z,2.97
2018-05-14T14:46:13.381Z,3.70
2018-05-14T14:48:41.136Z,3.70
2018-05-14T14:51:09.123Z,3.90
2018-05-14T14:53:36.692Z,3.30
2018-05-14T14:56:04.282Z,3.53
2018-05-14T14:58:31.867Z,3.40
2018-05-14T15:01:00.522Z,3.37
2018-05-14T15:03:28.219Z,3.37
2018-05-14T15:05:55.898Z,3.43
2018-05-14T15:08:23.534Z,3.20
2018-05-14T15:10:51.042Z,3.00
2018-05-14T15:13:18.755Z,4.20
2018-05-14T15:15:46.354Z,3.80
2018-05-14T15:18:14.055Z,4.40
2018-05-14T15:20:41.871Z,3.50
2018-05-14T15:23:10.092Z,2.70
2018-05-14T15:25:37.838Z,3.47
2018-05-14T15:28:05.471Z,3.50
2018-05-14T15:30:33.242Z,3.90
2018-05-14T15:33:01.045Z,3.60
2018-05-14T15:35:30.630Z,3.60
2018-05-14T15:37:58.541Z,3.17
2018-05-14T15:40:26.186Z,3.80
2018-05-14T15:42:53.762Z,3.07
2018-05-14T15:45:21.472Z,2.97
2018-05-14T15:47:49.170Z,3.23
2018-05-14T15:50:16.862Z,3.40
2018-05-14T15:52:45.226Z,3.40
2018-05-14T15:55:13.224Z,2.83
2018-05-14T16:00:14.690Z,3.00
2018-05-14T16:02:42.332Z,3.50
2018-05-14T16:05:10.171Z,3.50
2018-05-14T16:07:38.638Z,3.23
2018-05-14T16:10:06.299Z,3.40
2018-05-14T16:12:34.403Z,6.03
2018-05-14T16:15:02.089Z,11.00
2018-05-14T16:17:29.692Z,8.40
2018-05-14T16:19:57.361Z,9.10
2018-05-14T16:22:25.085Z,5.30
2018-05-14T16:24:52.791Z,4.57
2018-05-14T16:27:20.539Z,4.03
2018-05-14T16:29:48.201Z,3.30
2018-05-14T16:32:15.837Z,3.30
2018-05-14T16:34:43.573Z,3.67
2018-05-14T16:37:11.575Z,3.90
2018-05-14T16:39:39.193Z,3.80
2018-05-14T16:42:06.899Z,4.40
2018-05-14T16:44:34.605Z,3.40
2018-05-14T16:47:02.228Z,4.00
2018-05-14T16:49:29.987Z,3.50
2018-05-14T16:51:57.706Z,3.17
2018-05-14T16:54:25.377Z,3.07
2018-05-14T16:56:53.058Z,3.47
2018-05-14T16:59:21.527Z,3.40
2018-05-14T17:01:49.444Z,3.00
2018-05-14T17:04:17.011Z,3.60
2018-05-14T17:09:18.333Z,3.40
2018-05-14T17:11:45.867Z,3.77
2018-05-14T17:14:13.396Z,2.93
2018-05-14T17:16:40.967Z,3.53
2018-05-14T17:19:08.537Z,3.43
2018-05-14T17:21:36.144Z,3.50
2018-05-14T17:24:03.652Z,4.30
2018-05-14T17:26:31.359Z,3.37
2018-05-14T17:28:58.893Z,3.50
2018-05-14T17:31:26.467Z,4.17
2018-05-14T17:33:53.974Z,3.70
2018-05-14T17:36:21.538Z,3.67
2018-05-14T17:38:49.169Z,3.87
2018-05-14T17:41:16.933Z,3.80
2018-05-14T17:43:44.552Z,4.23
2018-05-14T17:46:12.178Z,3.80
2018-05-14T17:48:39.818Z,3.60
2018-05-14T17:51:07.451Z,3.53
2018-05-14T17:53:35.053Z,3.20
2018-05-14T17:56:02.712Z,3.70
2018-05-14T17:58:30.265Z,3.87
2018-05-14T18:00:57.867Z,4.50
2018-05-14T18:03:25.475Z,4.63
2018-05-14T18:05:53.073Z,4.20
2018-05-14T18:10:54.781Z,3.67
2018-05-14T18:13:22.438Z,3.43
2018-05-14T18:15:50.105Z,3.70
2018-05-14T18:18:17.731Z,3.10
2018-05-14T18:20:45.474Z,3.27
2018-05-14T18:23:18.477Z,3.43
2018-05-14T18:25:52.376Z,4.50
2018-05-14T18:28:20.030Z,3.40
2018-05-14T18:30:47.617Z,3.60
2018-05-14T18:33:25.240Z,3.30
2018-05-14T18:35:55.524Z,3.67
2018-05-14T18:38:23.133Z,4.27
2018-05-14T18:40:50.714Z,2.90
2018-05-14T18:43:18.294Z,3.33
2018-05-14T18:45:46.088Z,3.50
2018-05-14T18:48:13.688Z,3.40
2018-05-14T18:50:41.355Z,3.33
2018-05-14T18:53:09.041Z,3.63
2018-05-14T18:55:36.638Z,3.33
2018-05-14T18:58:04.225Z,4.20
2018-05-14T19:00:31.820Z,3.50
2018-05-14T19:02:59.393Z,4.03
2018-05-14T19:05:27.058Z,3.67
2018-05-14T19:07:54.685Z,4.37
2018-05-14T19:10:27.908Z,3.67
2018-05-14T19:12:55.511Z,3.57
2018-05-14T19:15:28.679Z,3.57
2018-05-14T19:18:00.202Z,4.50
2018-05-14T19:20:27.772Z,3.50
2018-05-14T19:23:01.057Z,4.30
2018-05-14T19:25:28.663Z,4.17
2018-05-14T19:28:01.853Z,3.53
2018-05-14T19:30:29.444Z,3.93
2018-05-14T19:32:57.055Z,4.20
2018-05-14T19:35:30.232Z,3.13
2018-05-14T19:37:57.863Z,3.40
2018-05-14T19:40:30.813Z,4.37
2018-05-14T19:42:58.781Z,4.23
2018-05-14T19:45:26.397Z,4.87
2018-05-14T19:47:54.004Z,4.33
2018-05-14T19:50:21.679Z,3.90
2018-05-14T19:52:49.226Z,4.70
2018-05-14T19:55:17.029Z,4.13
2018-05-14T19:57:44.594Z,4.60
2018-05-14T20:00:12.151Z,5.40
2018-05-14T20:02:39.770Z,4.30
2018-05-14T20:05:07.469Z,4.60
2018-05-14T20:07:34.986Z,4.83
2018-05-14T20:10:02.493Z,4.20
2018-05-14T20:12:30.063Z,4.30
2018-05-14T20:14:57.580Z,4.07
2018-05-14T20:17:25.202Z,4.23
2018-05-14T20:19:52.784Z,4.73
2018-05-14T20:22:20.296Z,4.20
2018-05-14T20:24:47.833Z,5.50
2018-05-14T20:27:15.353Z,4.70
2018-05-14T20:29:42.886Z,5.00
2018-05-14T20:32:10.414Z,4.33
2018-05-14T20:34:37.973Z,4.33
2018-05-14T20:37:05.531Z,4.20
2018-05-14T20:39:33.046Z,5.10
2018-05-14T20:42:00.545Z,4.40
2018-05-14T20:44:28.125Z,3.97
2018-05-14T20:46:55.624Z,4.30
2018-05-14T20:49:23.130Z,4.33
2018-05-14T20:51:50.648Z,4.23
2018-05-14T20:54:18.225Z,4.00
2018-05-14T20:56:45.726Z,4.47
2018-05-14T20:59:13.343Z,4.83
2018-05-14T21:01:40.950Z,3.83
2018-05-14T21:04:08.575Z,4.47
2018-05-14T21:06:36.222Z,4.00
2018-05-14T21:09:03.938Z,3.93
2018-05-14T21:11:31.568Z,4.60
2018-05-14T21:13:59.137Z,4.10
2018-05-14T21:16:26.699Z,4.37
2018-05-14T21:18:54.380Z,5.10
2018-05-14T21:21:21.877Z,3.93
2018-05-14T21:23:49.425Z,5.00
2018-05-14T21:26:17.094Z,4.13
2018-05-14T21:28:44.710Z,5.70
2018-05-14T21:31:12.301Z,4.90
2018-05-14T21:33:39.894Z,4.17
2018-05-14T21:36:07.481Z,4.03
2018-05-14T21:38:35.075Z,5.03
2018-05-14T21:41:02.700Z,4.67
2018-05-14T21:43:30.284Z,4.40
2018-05-14T21:45:57.883Z,4.57
2018-05-14T21:48:25.465Z,4.10
2018-05-14T21:50:53.076Z,5.20
2018-05-14T21:53:20.685Z,4.20
2018-05-14T21:55:48.186Z,4.07
2018-05-14T21:58:15.709Z,4.00
2018-05-14T22:00:43.261Z,4.40
2018-05-14T22:03:10.855Z,4.20
2018-05-14T22:05:50.190Z,4.20
2018-05-14T22:08:17.823Z,4.80
2018-05-14T22:10:45.496Z,4.73
2018-05-14T22:13:13.099Z,4.60
2018-05-14T22:15:40.773Z,5.30
2018-05-14T22:18:08.410Z,4.53
2018-05-14T22:20:35.991Z,5.00
2018-05-14T22:23:03.573Z,4.73
2018-05-14T22:25:31.168Z,4.10
2018-05-14T22:27:58.685Z,3.60
2018-05-14T22:30:26.183Z,5.23
2018-05-14T22:32:53.682Z,4.60
2018-05-14T22:35:21.223Z,4.23
2018-05-14T22:37:49.505Z,4.60
2018-05-14T22:40:17.011Z,4.30
2018-05-14T22:42:44.533Z,4.47
2018-05-14T22:45:13.518Z,4.67
2018-05-14T22:47:41.171Z,5.07
2018-05-14T22:50:08.715Z,5.03
2018-05-14T22:52:36.265Z,4.90
2018-05-14T22:55:03.894Z,3.97
2018-05-14T22:57:31.424Z,4.30
2018-05-14T22:59:58.949Z,4.27
2018-05-14T23:02:26.547Z,4.20
2018-05-14T23:04:54.105Z,4.70
2018-05-14T23:07:21.694Z,4.30
2018-05-14T23:09:49.294Z,4.70
2018-05-14T23:12:16.921Z,4.30
2018-05-14T23:14:44.472Z,4.90
2018-05-14T23:17:12.062Z,4.83
2018-05-14T23:19:39.646Z,4.93
2018-05-14T23:22:07.200Z,5.30
2018-05-14T23:24:34.791Z,5.53
2018-05-14T23:27:02.327Z,5.20
2018-05-14T23:29:29.852Z,5.27
2018-05-14T23:31:57.451Z,5.37
2018-05-14T23:34:25.096Z,5.23
2018-05-14T23:36:52.721Z,6.63
2018-05-14T23:39:20.347Z,4.60
2018-05-14T23:41:47.968Z,4.73
2018-05-14T23:44:15.598Z,6.03
2018-05-14T23:46:43.211Z,4.73
2018-05-14T23:49:11.146Z,5.10
2018-05-14T23:51:38.765Z,5.57
2018-05-14T23:54:06.349Z,4.80
2018-05-14T23:56:33.936Z,4.83
2018-05-14T23:59:01.530Z,3.97
